createdAt,value
2023-08-20T00:01:29.058Z,20.48
2023-08-20T00:03:56.920Z,22.05
2023-08-20T00:06:24.700Z,23.25
2023-08-20T00:08:51.834Z,21.08
2023-08-20T00:11:19.095Z,21.95
2023-08-20T00:13:46.417Z,20.20
2023-08-20T00:16:13.677Z,20.27
2023-08-20T00:18:41.370Z,20.08
2023-08-20T00:21:09.332Z,20.90
2023-08-20T00:23:37.040Z,18.83
2023-08-20T00:26:04.613Z,19.75
2023-08-20T00:28:34.430Z,20.05
2023-08-20T00:31:02.396Z,19.95
2023-08-20T00:33:29.863Z,20.83
2023-08-20T00:35:57.101Z,21.48
2023-08-20T00:38:24.226Z,21.83
2023-08-20T00:40:51.560Z,21.65
2023-08-20T00:43:18.806Z,25.75
2023-08-20T00:45:45.859Z,19.80
2023-08-20T00:48:14.405Z,23.67
2023-08-20T00:50:42.052Z,21.67
2023-08-20T00:53:11.782Z,22.13
2023-08-20T00:55:39.033Z,21.23
2023-08-20T00:58:06.333Z,23.00
2023-08-20T01:00:33.340Z,20.90
2023-08-20T01:03:00.720Z,21.92
2023-08-20T01:05:30.608Z,21.42
2023-08-20T01:07:57.836Z,22.52
2023-08-20T01:10:53.358Z,22.13
2023-08-20T01:13:20.891Z,20.10
2023-08-20T01:15:47.815Z,21.85
2023-08-20T01:18:14.664Z,20.05
2023-08-20T01:20:53.114Z,19.88
2023-08-20T01:23:43.693Z,20.15
2023-08-20T01:26:28.895Z,19.88
2023-08-20T01:28:57.275Z,19.13
2023-08-20T01:31:26.184Z,20.77
2023-08-20T01:33:54.974Z,21.23
2023-08-20T01:36:23.565Z,19.92
2023-08-20T01:38:50.911Z,20.40
2023-08-20T01:41:17.776Z,21.27
2023-08-20T01:43:45.022Z,20.13
2023-08-20T01:46:11.950Z,19.52
2023-08-20T01:48:38.800Z,19.95
2023-08-20T01:51:06.076Z,19.48
2023-08-20T01:53:32.920Z,19.52
2023-08-20T01:55:59.761Z,21.75
2023-08-20T01:58:27.001Z,21.20
2023-08-20T02:00:54.353Z,19.80
2023-08-20T02:03:21.226Z,23.00
2023-08-20T02:05:48.480Z,19.10
2023-08-20T02:08:15.790Z,22.38
2023-08-20T02:10:43.123Z,21.50
2023-08-20T02:13:10.362Z,19.60
2023-08-20T02:15:37.758Z,19.83
2023-08-20T02:18:05.207Z,20.23
2023-08-20T02:20:32.509Z,19.40
2023-08-20T02:22:59.345Z,18.85
2023-08-20T02:25:26.666Z,20.17
2023-08-20T02:27:53.931Z,18.80
2023-08-20T02:30:21.423Z,19.88
2023-08-20T02:32:48.792Z,18.75
2023-08-20T02:35:17.485Z,20.13
2023-08-20T02:37:44.761Z,19.60
2023-08-20T02:40:12.841Z,18.15
2023-08-20T02:42:39.790Z,19.65
2023-08-20T02:45:07.349Z,18.13
2023-08-20T02:47:34.787Z,20.83
2023-08-20T02:50:02.286Z,18.83
2023-08-20T02:52:29.527Z,20.23
2023-08-20T02:54:56.402Z,18.95
2023-08-20T02:57:23.305Z,20.95
2023-08-20T02:59:50.574Z,20.17
2023-08-20T03:02:17.848Z,20.48
2023-08-20T03:04:44.946Z,20.85
2023-08-20T03:07:11.914Z,20.50
2023-08-20T03:09:38.760Z,19.58
2023-08-20T03:12:06.210Z,20.20
2023-08-20T03:14:33.552Z,25.15
2023-08-20T03:17:00.922Z,23.33
2023-08-20T03:19:28.201Z,20.98
2023-08-20T03:21:55.026Z,19.60
2023-08-20T03:24:21.858Z,19.27
2023-08-20T03:26:49.173Z,20.65
2023-08-20T03:29:16.460Z,19.92
2023-08-20T03:31:43.747Z,19.77
2023-08-20T03:34:10.830Z,19.10
2023-08-20T03:36:38.237Z,20.50
2023-08-20T03:39:05.328Z,21.35
2023-08-20T03:41:32.588Z,19.60
2023-08-20T03:43:59.461Z,18.60
2023-08-20T03:46:26.326Z,21.20
2023-08-20T03:48:53.243Z,20.67
2023-08-20T03:51:20.504Z,20.08
2023-08-20T03:53:47.821Z,19.85
2023-08-20T03:56:14.685Z,21.00
2023-08-20T03:58:41.579Z,20.77
2023-08-20T04:01:08.925Z,23.65
2023-08-20T04:03:36.772Z,20.58
2023-08-20T04:06:04.053Z,21.50
2023-08-20T04:08:30.989Z,19.95
2023-08-20T04:10:58.258Z,18.83
2023-08-20T04:13:25.150Z,20.40
2023-08-20T04:15:53.059Z,20.60
2023-08-20T04:18:19.891Z,21.77
2023-08-20T04:20:46.748Z,20.05
2023-08-20T04:23:14.148Z,20.42
2023-08-20T04:25:41.522Z,21.23
2023-08-20T04:28:08.429Z,20.85
2023-08-20T04:30:38.323Z,20.20
2023-08-20T04:33:05.773Z,20.17
2023-08-20T04:35:33.195Z,22.05
2023-08-20T04:38:00.463Z,19.98
2023-08-20T04:40:27.748Z,21.20
2023-08-20T04:42:55.051Z,20.13
2023-08-20T04:45:22.234Z,20.90
2023-08-20T04:47:49.560Z,20.83
2023-08-20T04:50:18.606Z,19.13
2023-08-20T04:52:46.882Z,21.27
2023-08-20T04:55:13.825Z,20.67
2023-08-20T04:57:40.659Z,19.50
2023-08-20T05:00:08.119Z,18.55
2023-08-20T05:02:35.693Z,19.67
2023-08-20T05:05:03.843Z,19.38
2023-08-20T05:07:31.166Z,20.65
2023-08-20T05:09:58.470Z,19.65
2023-08-20T05:12:25.768Z,20.48
2023-08-20T05:14:52.628Z,19.23
2023-08-20T05:17:19.880Z,19.42
2023-08-20T05:19:47.183Z,20.02
2023-08-20T05:22:14.030Z,19.45
2023-08-20T05:24:40.877Z,20.67
2023-08-20T05:27:20.925Z,18.98
2023-08-20T05:29:48.186Z,18.08
2023-08-20T05:32:16.161Z,18.42
2023-08-20T05:34:43.157Z,18.88
2023-08-20T05:37:10.449Z,17.30
2023-08-20T05:39:45.303Z,20.73
2023-08-20T05:42:12.488Z,16.85
2023-08-20T05:44:39.417Z,18.52
2023-08-20T05:47:06.824Z,19.23
2023-08-20T05:49:34.312Z,17.85
2023-08-20T05:52:01.537Z,17.60
2023-08-20T05:54:28.842Z,19.35
2023-08-20T05:56:56.344Z,19.20
2023-08-20T05:59:23.611Z,17.52
2023-08-20T06:01:50.945Z,17.42
2023-08-20T06:04:19.568Z,18.25
2023-08-20T06:06:46.610Z,18.02
2023-08-20T06:09:14.444Z,19.05
2023-08-20T06:11:41.340Z,17.35
2023-08-20T06:14:08.365Z,18.80
2023-08-20T06:16:35.663Z,19.15
2023-08-20T06:19:04.134Z,19.85
2023-08-20T06:21:32.477Z,18.65
2023-08-20T06:23:59.399Z,19.27
2023-08-20T06:26:26.653Z,23.00
2023-08-20T06:28:53.913Z,18.33
2023-08-20T06:31:21.180Z,18.70
2023-08-20T06:33:48.801Z,18.00
2023-08-20T06:36:16.053Z,17.60
2023-08-20T06:38:43.812Z,16.75
2023-08-20T06:41:10.690Z,18.08
2023-08-20T06:43:37.933Z,18.27
2023-08-20T06:46:05.281Z,17.38
2023-08-20T06:48:32.139Z,16.20
2023-08-20T06:50:59.419Z,16.17
2023-08-20T06:53:26.682Z,18.00
2023-08-20T06:55:53.905Z,17.40
2023-08-20T06:58:21.137Z,17.05
2023-08-20T07:00:48.426Z,17.02
2023-08-20T07:03:15.728Z,17.15
2023-08-20T07:05:42.634Z,17.00
2023-08-20T07:08:09.860Z,17.38
2023-08-20T07:10:37.096Z,18.60
2023-08-20T07:13:04.054Z,17.80
2023-08-20T07:15:31.420Z,17.13
2023-08-20T07:17:58.706Z,16.45
2023-08-20T07:20:26.002Z,16.58
2023-08-20T07:22:53.264Z,16.95
2023-08-20T07:25:20.497Z,17.83
2023-08-20T07:27:47.827Z,16.73
2023-08-20T07:30:14.707Z,16.15
2023-08-20T07:32:41.989Z,16.50
2023-08-20T07:35:12.080Z,15.80
2023-08-20T07:37:39.616Z,16.15
2023-08-20T07:40:07.006Z,15.32
2023-08-20T07:42:34.248Z,15.57
2023-08-20T07:45:01.538Z,15.75
2023-08-20T07:47:30.251Z,17.50
2023-08-20T07:49:57.698Z,15.90
2023-08-20T07:52:24.587Z,16.13
2023-08-20T07:54:51.888Z,15.95
2023-08-20T07:57:19.152Z,16.15
2023-08-20T07:59:46.380Z,14.93
2023-08-20T08:02:13.664Z,15.43
2023-08-20T08:04:41.703Z,16.50
2023-08-20T08:07:09.877Z,17.08
2023-08-20T08:09:37.159Z,15.90
2023-08-20T08:12:05.235Z,15.82
2023-08-20T08:14:32.665Z,16.30
2023-08-20T08:16:59.988Z,14.57
2023-08-20T08:19:27.264Z,15.73
2023-08-20T08:21:54.506Z,16.10
2023-08-20T08:24:21.768Z,15.05
2023-08-20T08:26:49.003Z,15.80
2023-08-20T08:29:16.271Z,15.23
2023-08-20T08:31:43.498Z,15.23
2023-08-20T08:34:10.717Z,14.30
2023-08-20T08:36:38.801Z,17.23
2023-08-20T08:39:06.376Z,17.33
2023-08-20T08:41:36.833Z,17.40
2023-08-20T08:44:04.553Z,16.55
2023-08-20T08:46:31.903Z,21.75
2023-08-20T08:48:59.425Z,17.20
2023-08-20T08:51:27.807Z,17.45
2023-08-20T08:53:55.095Z,16.70
2023-08-20T08:56:22.380Z,17.25
2023-08-20T08:58:49.809Z,16.88
2023-08-20T09:01:17.131Z,16.92
2023-08-20T09:03:44.472Z,15.85
2023-08-20T09:06:12.061Z,16.20
2023-08-20T09:08:39.376Z,15.77
2023-08-20T09:11:06.648Z,15.02
2023-08-20T09:13:42.032Z,16.45
2023-08-20T09:16:10.649Z,15.85
2023-08-20T09:18:41.678Z,15.02
2023-08-20T09:21:09.863Z,15.55
2023-08-20T09:23:37.752Z,15.02
2023-08-20T09:26:05.876Z,13.40
2023-08-20T09:28:46.376Z,13.98
2023-08-20T09:31:14.178Z,15.32
2023-08-20T09:33:54.735Z,14.85
2023-08-20T09:36:34.661Z,15.15
2023-08-20T09:39:04.807Z,13.20
2023-08-20T09:41:32.994Z,14.38
2023-08-20T09:44:00.935Z,14.30
2023-08-20T09:46:32.354Z,13.27
2023-08-20T09:48:59.641Z,13.27
2023-08-20T09:51:28.541Z,14.57
2023-08-20T09:54:04.167Z,14.52
2023-08-20T09:56:32.361Z,13.80
2023-08-20T09:59:00.149Z,13.23
2023-08-20T10:01:28.468Z,13.77
2023-08-20T10:03:56.021Z,13.40
2023-08-20T10:06:23.743Z,12.82
2023-08-20T10:08:52.378Z,13.68
2023-08-20T10:11:19.765Z,12.82
2023-08-20T10:13:47.165Z,13.20
2023-08-20T10:16:15.389Z,14.45
2023-08-20T10:18:42.944Z,14.55
2023-08-20T10:21:10.900Z,13.52
2023-08-20T10:23:43.325Z,13.30
2023-08-20T10:26:11.405Z,13.38
2023-08-20T10:28:38.897Z,13.38
2023-08-20T10:31:11.061Z,13.00
2023-08-20T10:33:47.702Z,12.88
2023-08-20T10:36:20.064Z,13.20
2023-08-20T10:38:47.996Z,13.68
2023-08-20T10:41:18.116Z,14.38
2023-08-20T10:43:49.873Z,14.48
2023-08-20T10:46:19.370Z,13.85
2023-08-20T10:48:58.319Z,14.05
2023-08-20T10:51:28.217Z,14.95
2023-08-20T10:54:11.385Z,13.60
2023-08-20T10:57:02.275Z,13.02
2023-08-20T10:59:34.168Z,12.45
2023-08-20T11:02:01.742Z,13.07
2023-08-20T11:04:33.974Z,12.60
2023-08-20T11:07:01.702Z,11.60
2023-08-20T11:09:30.524Z,13.30
2023-08-20T11:11:58.495Z,13.02
2023-08-20T11:14:26.156Z,13.20
2023-08-20T11:16:53.461Z,12.65
2023-08-20T11:19:22.243Z,12.80
2023-08-20T11:21:49.926Z,13.25
2023-08-20T11:24:17.716Z,12.15
2023-08-20T11:26:45.295Z,12.40
2023-08-20T11:29:25.328Z,14.52
2023-08-20T11:31:52.706Z,14.07
2023-08-20T11:34:20.310Z,12.85
2023-08-20T11:36:47.715Z,12.48
2023-08-20T11:39:14.952Z,13.15
2023-08-20T11:41:42.552Z,12.73
2023-08-20T11:44:19.823Z,12.02
2023-08-20T11:46:47.099Z,13.05
2023-08-20T11:49:15.066Z,11.88
2023-08-20T11:51:42.290Z,12.15
2023-08-20T11:54:11.024Z,12.20
2023-08-20T11:56:39.883Z,11.75
2023-08-20T11:59:07.113Z,10.68
2023-08-20T12:01:34.596Z,11.65
2023-08-20T12:04:04.988Z,10.63
2023-08-20T12:06:32.631Z,11.60
2023-08-20T12:09:00.060Z,11.57
2023-08-20T12:11:28.661Z,10.30
2023-08-20T12:13:55.998Z,10.63
2023-08-20T12:16:26.387Z,12.07
2023-08-20T12:18:53.950Z,10.75
2023-08-20T12:21:21.429Z,11.25
2023-08-20T12:23:48.665Z,10.30
2023-08-20T12:26:15.894Z,9.90
2023-08-20T12:28:43.131Z,10.93
2023-08-20T12:31:10.430Z,11.30
2023-08-20T12:33:37.743Z,10.43
2023-08-20T12:36:04.907Z,12.23
2023-08-20T12:38:34.850Z,12.05
2023-08-20T12:41:05.056Z,10.30
2023-08-20T12:43:32.350Z,11.15
2023-08-20T12:45:59.712Z,11.23
2023-08-20T12:48:27.095Z,10.57
2023-08-20T12:50:54.396Z,10.25
2023-08-20T12:53:22.319Z,9.93
2023-08-20T12:55:49.586Z,8.93
2023-08-20T12:58:16.825Z,9.45
2023-08-20T13:00:44.830Z,9.63
2023-08-20T13:03:12.076Z,9.18
2023-08-20T13:05:39.524Z,9.10
2023-08-20T13:08:07.820Z,10.70
2023-08-20T13:10:35.204Z,10.43
2023-08-20T13:13:03.530Z,10.27
2023-08-20T13:15:30.992Z,9.55
2023-08-20T13:17:58.309Z,10.32
2023-08-20T13:20:26.330Z,10.02
2023-08-20T13:22:54.162Z,9.93
2023-08-20T13:25:22.679Z,10.35
2023-08-20T13:27:50.681Z,9.55
2023-08-20T13:30:19.099Z,11.25
2023-08-20T13:32:46.450Z,10.13
2023-08-20T13:35:15.592Z,10.45
2023-08-20T13:37:43.670Z,12.07
2023-08-20T13:40:11.162Z,13.23
2023-08-20T13:42:38.584Z,9.60
2023-08-20T13:45:06.759Z,11.18
2023-08-20T13:47:34.085Z,10.55
2023-08-20T13:50:01.362Z,10.98
2023-08-20T13:52:28.630Z,10.45
2023-08-20T13:54:55.920Z,11.07
2023-08-20T13:57:23.189Z,13.30
2023-08-20T13:59:50.743Z,10.85
2023-08-20T14:02:17.944Z,10.75
2023-08-20T14:04:45.327Z,12.13
2023-08-20T14:07:12.602Z,11.10
2023-08-20T14:09:41.074Z,10.50
2023-08-20T14:12:08.520Z,10.70
2023-08-20T14:14:35.780Z,10.65
2023-08-20T14:17:04.104Z,10.63
2023-08-20T14:19:31.360Z,10.02
2023-08-20T14:21:58.609Z,10.20
2023-08-20T14:24:25.866Z,9.70
2023-08-20T14:26:53.112Z,10.65
2023-08-20T14:29:20.660Z,10.73
2023-08-20T14:31:47.912Z,10.63
2023-08-20T14:34:15.150Z,10.57
2023-08-20T14:36:42.450Z,10.23
2023-08-20T14:39:09.721Z,10.45
2023-08-20T14:41:36.984Z,9.27
2023-08-20T14:44:04.661Z,9.93
2023-08-20T14:46:31.965Z,10.15
2023-08-20T14:48:59.283Z,9.88
2023-08-20T14:51:26.541Z,10.25
2023-08-20T14:53:53.798Z,10.45
2023-08-20T14:56:21.048Z,10.32
2023-08-20T14:58:48.276Z,10.63
2023-08-20T15:01:16.058Z,9.25
2023-08-20T15:03:43.422Z,10.70
2023-08-20T15:06:10.756Z,10.20
2023-08-20T15:08:37.971Z,10.15
2023-08-20T15:11:05.247Z,9.15
2023-08-20T15:13:33.041Z,9.90
2023-08-20T15:16:00.616Z,9.70
2023-08-20T15:18:27.905Z,9.93
2023-08-20T15:20:56.631Z,9.55
2023-08-20T15:23:25.187Z,10.10
2023-08-20T15:25:56.500Z,9.38
2023-08-20T15:28:26.155Z,10.00
2023-08-20T15:30:55.015Z,9.13
2023-08-20T15:33:22.763Z,9.45
2023-08-20T15:35:50.142Z,10.07
2023-08-20T15:38:17.385Z,9.18
2023-08-20T15:40:44.829Z,10.10
2023-08-20T15:43:12.163Z,9.60
2023-08-20T15:45:39.410Z,10.07
2023-08-20T15:48:06.919Z,9.13
2023-08-20T15:50:34.207Z,11.85
2023-08-20T15:53:01.472Z,9.93
2023-08-20T15:55:28.767Z,9.75
2023-08-20T15:57:56.072Z,9.05
2023-08-20T16:00:24.394Z,12.07
2023-08-20T16:02:51.880Z,9.23
2023-08-20T16:05:19.452Z,9.77
2023-08-20T16:07:46.746Z,9.50
2023-08-20T16:10:14.121Z,9.40
2023-08-20T16:12:41.728Z,9.43
2023-08-20T16:15:09.261Z,10.02
2023-08-20T16:17:36.683Z,8.90
2023-08-20T16:20:05.213Z,11.77
2023-08-20T16:22:32.553Z,9.93
2023-08-20T16:25:00.194Z,9.50
2023-08-20T16:27:27.480Z,12.65
2023-08-20T16:29:54.464Z,11.80
2023-08-20T16:32:21.869Z,12.27
2023-08-20T16:34:49.256Z,10.02
2023-08-20T16:37:16.556Z,10.43
2023-08-20T16:39:44.353Z,11.48
2023-08-20T16:42:11.880Z,9.55
2023-08-20T16:44:39.136Z,8.93
2023-08-20T16:47:06.181Z,9.88
2023-08-20T16:49:33.431Z,8.52
2023-08-20T16:52:00.696Z,10.27
2023-08-20T16:54:27.954Z,9.73
2023-08-20T16:56:55.215Z,9.80
2023-08-20T16:59:22.500Z,9.95
2023-08-20T17:01:49.759Z,9.32
2023-08-20T17:04:17.026Z,8.85
2023-08-20T17:06:45.374Z,10.52
2023-08-20T17:09:12.739Z,8.63
2023-08-20T17:11:39.967Z,9.85
2023-08-20T17:14:08.591Z,10.05
2023-08-20T17:16:36.137Z,10.40
2023-08-20T17:19:03.710Z,10.82
2023-08-20T17:21:31.222Z,10.80
2023-08-20T17:23:59.728Z,10.63
2023-08-20T17:26:29.508Z,10.50
2023-08-20T17:28:56.741Z,9.88
2023-08-20T17:31:24.014Z,10.88
2023-08-20T17:33:51.269Z,10.20
2023-08-20T17:36:18.513Z,9.77
2023-08-20T17:38:45.836Z,10.23
2023-08-20T17:41:13.111Z,9.68
2023-08-20T17:43:40.386Z,15.98
2023-08-20T17:46:07.729Z,10.88
2023-08-20T17:48:35.485Z,11.23
2023-08-20T17:51:03.139Z,12.38
2023-08-20T17:53:30.388Z,10.82
2023-08-20T17:56:00.855Z,13.30
2023-08-20T17:58:28.770Z,15.63
2023-08-20T18:00:56.087Z,12.88
2023-08-20T18:03:23.463Z,11.23
2023-08-20T18:05:53.707Z,10.10
2023-08-20T18:08:20.944Z,9.80
2023-08-20T18:10:47.934Z,13.95
2023-08-20T18:13:15.804Z,10.48
2023-08-20T18:15:43.138Z,10.70
2023-08-20T18:18:10.923Z,12.75
2023-08-20T18:20:38.369Z,17.05
2023-08-20T18:23:06.138Z,12.45
2023-08-20T18:25:33.607Z,12.63
2023-08-20T18:28:00.562Z,11.95
2023-08-20T18:30:29.859Z,16.48
2023-08-20T18:32:57.404Z,12.82
2023-08-20T18:35:25.136Z,14.25
2023-08-20T18:37:53.676Z,16.05
2023-08-20T18:40:21.016Z,13.18
2023-08-20T18:42:48.544Z,11.63
2023-08-20T18:45:15.777Z,13.05
2023-08-20T18:47:43.544Z,13.98
2023-08-20T18:50:10.858Z,12.23
2023-08-20T18:52:38.361Z,13.77
2023-08-20T18:55:06.668Z,13.15
2023-08-20T18:57:33.638Z,12.73
2023-08-20T19:00:01.800Z,12.75
2023-08-20T19:02:29.087Z,14.15
2023-08-20T19:04:56.502Z,15.90
2023-08-20T19:07:23.785Z,19.88
2023-08-20T19:09:51.017Z,17.50
2023-08-20T19:12:17.841Z,14.43
2023-08-20T19:14:45.075Z,14.23
2023-08-20T19:17:12.359Z,16.05
2023-08-20T19:19:39.303Z,14.20
2023-08-20T19:22:06.748Z,13.75
2023-08-20T19:24:33.647Z,14.18
2023-08-20T19:27:01.121Z,13.73
2023-08-20T19:29:28.337Z,18.05
2023-08-20T19:31:55.278Z,14.43
2023-08-20T19:34:22.189Z,14.77
2023-08-20T19:36:49.899Z,15.82
2023-08-20T19:39:17.173Z,15.20
2023-08-20T19:41:44.417Z,13.05
2023-08-20T19:44:11.261Z,14.35
2023-08-20T19:46:38.912Z,16.63
2023-08-20T19:49:05.890Z,18.48
2023-08-20T19:51:33.116Z,15.48
2023-08-20T19:54:00.363Z,18.83
2023-08-20T19:56:27.314Z,15.75
2023-08-20T19:58:54.474Z,14.23
2023-08-20T20:01:25.780Z,14.57
2023-08-20T20:03:53.632Z,17.27
2023-08-20T20:06:21.144Z,15.10
2023-08-20T20:08:48.409Z,14.93
2023-08-20T20:11:15.708Z,15.00
2023-08-20T20:13:42.622Z,14.98
2023-08-20T20:16:10.328Z,15.57
2023-08-20T20:18:38.615Z,17.38
2023-08-20T20:21:06.054Z,17.25
2023-08-20T20:23:33.047Z,16.30
2023-08-20T20:26:00.196Z,20.10
2023-08-20T20:28:27.432Z,15.82
2023-08-20T20:30:54.516Z,16.60
2023-08-20T20:33:21.675Z,18.73
2023-08-20T20:35:57.967Z,15.38
2023-08-20T20:38:25.252Z,18.10
2023-08-20T20:40:52.359Z,19.50
2023-08-20T20:43:22.986Z,15.57
2023-08-20T20:45:57.651Z,16.20
2023-08-20T20:48:24.923Z,15.55
2023-08-20T20:50:52.231Z,15.60
2023-08-20T20:53:19.142Z,16.48
2023-08-20T20:55:46.811Z,17.27
2023-08-20T20:58:14.249Z,15.65
2023-08-20T21:00:41.294Z,17.70
2023-08-20T21:03:08.385Z,18.33
2023-08-20T21:05:36.477Z,17.92
2023-08-20T21:08:03.973Z,16.55
2023-08-20T21:10:31.107Z,18.45
2023-08-20T21:12:58.242Z,16.10
2023-08-20T21:15:25.755Z,16.35
2023-08-20T21:17:53.243Z,16.52
2023-08-20T21:20:20.382Z,15.85
2023-08-20T21:22:47.815Z,18.40
2023-08-20T21:25:14.867Z,17.10
2023-08-20T21:27:42.099Z,18.80
2023-08-20T21:30:09.742Z,16.42
2023-08-20T21:32:37.652Z,15.68
2023-08-20T21:35:05.962Z,18.27
2023-08-20T21:37:33.708Z,19.75
2023-08-20T21:40:01.171Z,17.00
2023-08-20T21:42:28.231Z,15.38
2023-08-20T21:44:55.636Z,16.13
2023-08-20T21:47:24.892Z,16.65
2023-08-20T21:49:52.294Z,16.50
2023-08-20T21:52:20.151Z,16.10
2023-08-20T21:54:47.876Z,18.73
2023-08-20T21:57:19.323Z,18.40
2023-08-20T21:59:51.525Z,16.90
2023-08-20T22:02:19.610Z,17.73
2023-08-20T22:04:46.744Z,16.80
2023-08-20T22:07:14.282Z,16.17
2023-08-20T22:09:41.462Z,16.08
2023-08-20T22:12:10.348Z,18.27
2023-08-20T22:14:37.459Z,16.00
2023-08-20T22:17:06.831Z,19.52
2023-08-20T22:19:37.349Z,16.55
2023-08-20T22:22:04.537Z,18.88
2023-08-20T22:24:31.998Z,19.25
2023-08-20T22:26:59.465Z,17.75
2023-08-20T22:29:26.926Z,19.33
2023-08-20T22:31:54.067Z,17.08
2023-08-20T22:34:20.955Z,17.77
2023-08-20T22:36:48.739Z,18.55
2023-08-20T22:39:18.029Z,19.73
2023-08-20T22:41:45.541Z,16.25
2023-08-20T22:44:13.031Z,17.90
2023-08-20T22:46:40.528Z,20.75
2023-08-20T22:49:08.052Z,17.10
2023-08-20T22:51:35.201Z,17.38
2023-08-20T22:54:02.320Z,17.83
2023-08-20T22:56:29.872Z,18.83
2023-08-20T22:58:57.348Z,19.05
2023-08-20T23:01:24.801Z,17.27
2023-08-20T23:03:52.292Z,16.88
2023-08-20T23:06:20.084Z,20.13
2023-08-20T23:08:47.458Z,18.30
2023-08-20T23:11:14.529Z,16.42
2023-08-20T23:13:41.786Z,17.33
2023-08-20T23:16:08.819Z,16.85
2023-08-20T23:18:35.677Z,17.30
2023-08-20T23:21:04.636Z,17.00
2023-08-20T23:23:31.963Z,17.98
2023-08-20T23:25:58.976Z,19.15
2023-08-20T23:28:26.161Z,18.52
2023-08-20T23:30:53.843Z,18.80
2023-08-20T23:33:21.183Z,17.80
2023-08-20T23:35:48.806Z,17.13
2023-08-20T23:38:15.744Z,20.40
2023-08-20T23:40:42.632Z,18.35
2023-08-20T23:43:10.145Z,21.02
2023-08-20T23:45:38.351Z,19.30
2023-08-20T23:48:05.491Z,18.67
2023-08-20T23:50:33.188Z,15.02
2023-08-20T23:53:00.560Z,18.65
2023-08-20T23:55:27.974Z,16.80
2023-08-20T23:57:55.508Z,17.95
